Time;durP1;ratioP1;P1;durP2;ratioP2;P2;SDS_P1;SDS_P2;PMS_P1;PMS_P2;Temp;Humidity;BMP_temperature;BMP_pressure;BME280_temperature;BME280_humidity;BME280_pressure;Samples;Min_cycle;Max_cycle;Signal;HPM_P1;HPM_P2
2022/10/30 00:00:35;;;;;;;8.10;4.57;;;;;;;-141.28;100.00;49384.28;5136069;27;20274;-80
2022/10/30 00:03:04;;;;;;;8.63;4.87;;;;;;;-141.28;100.00;49384.28;5136275;27;20202;-79
2022/10/30 00:05:31;;;;;;;7.40;4.30;;;;;;;-141.28;100.00;49339.16;5135630;27;20763;-78
2022/10/30 00:07:59;;;;;;;6.43;4.00;;;;;;;-141.28;100.00;49337.19;5139837;27;20231;-76
2022/10/30 00:10:26;;;;;;;8.40;4.30;;;;;;;-141.28;100.00;49325.41;5136743;27;20198;-76
2022/10/30 00:12:53;;;;;;;8.43;4.93;;;;;;;-141.28;100.00;49321.50;5135701;27;20267;-76
2022/10/30 00:15:20;;;;;;;6.87;4.30;;;;;;;-141.28;100.00;49309.72;5135610;27;20631;-80
2022/10/30 00:17:47;;;;;;;8.87;3.70;;;;;;;-141.28;100.00;49313.66;5135684;27;20226;-76
2022/10/30 00:20:15;;;;;;;9.63;4.40;;;;;;;-141.28;100.00;49301.88;5135444;27;20258;-77
2022/10/30 00:22:42;;;;;;;10.50;4.70;;;;;;;-141.28;100.00;49307.75;5135831;27;20251;-76
2022/10/30 00:25:09;;;;;;;6.20;4.40;;;;;;;-141.28;100.00;49313.66;5135356;27;20629;-78
2022/10/30 00:27:36;;;;;;;6.70;4.27;;;;;;;-141.28;100.00;49290.09;5135464;27;20314;-76
2022/10/30 00:30:03;;;;;;;6.67;4.50;;;;;;;-141.28;100.00;49299.91;5135307;27;20657;-78
2022/10/30 00:32:30;;;;;;;8.83;4.33;;;;;;;-141.28;100.00;49250.84;5134769;27;20707;-79
2022/10/30 00:34:57;;;;;;;9.67;4.97;;;;;;;-141.28;100.00;49256.75;5135675;27;20206;-77
2022/10/30 00:37:26;;;;;;;7.23;4.50;;;;;;;-141.28;100.00;49256.75;5135044;27;20206;-79
2022/10/30 00:39:53;;;;;;;5.50;4.37;;;;;;;-141.28;100.00;49246.94;5135277;27;20202;-77
2022/10/30 00:42:20;;;;;;;9.80;5.03;;;;;;;-141.28;100.00;49223.38;5135390;27;20198;-77
2022/10/30 00:44:50;;;;;;;8.70;4.60;;;;;;;-141.28;100.00;49219.47;5135055;27;20209;-78
2022/10/30 00:47:20;;;;;;;9.03;4.90;;;;;;;-141.28;100.00;49219.47;5134972;27;20205;-76
2022/10/30 00:49:56;;;;;;;10.00;5.97;;;;;;;-141.28;100.00;49246.94;5135079;27;20198;-77
2022/10/30 00:52:27;;;;;;;13.63;7.20;;;;;;;-141.28;100.00;49246.94;5121389;27;21158;-76
2022/10/30 00:54:55;;;;;;;14.77;7.57;;;;;;;-141.28;100.00;49254.78;5135170;27;20202;-79
2022/10/30 00:57:23;;;;;;;18.37;8.43;;;;;;;-141.28;100.00;49217.50;5134566;27;20198;-76
2022/10/30 00:59:50;;;;;;;17.13;8.40;;;;;;;-141.28;100.00;49207.69;5136421;27;20201;-77
2022/10/30 01:02:19;;;;;;;14.37;9.50;;;;;;;-141.28;100.00;49195.91;5134775;27;20194;-76
2022/10/30 01:04:47;;;;;;;20.10;13.20;;;;;;;-141.28;100.00;49195.91;5134635;27;20222;-79
2022/10/30 01:07:16;;;;;;;56.20;38.60;;;;;;;-141.28;100.00;49188.06;5132644;27;20210;-76
2022/10/30 01:09:46;;;;;;;76.33;51.80;;;;;;;-141.28;100.00;49178.25;5120536;27;20207;-76
2022/10/30 01:12:13;;;;;;;105.30;66.60;;;;;;;-141.28;100.00;49195.91;5134048;27;20305;-77
2022/10/30 01:14:44;;;;;;;79.73;51.17;;;;;;;-141.28;100.00;49160.59;5134493;27;20194;-77
2022/10/30 01:17:34;;;;;;;73.30;46.43;;;;;;;-141.28;100.00;49213.56;5134222;27;20293;-77
2022/10/30 01:20:16;;;;;;;14.57;8.87;;;;;;;-141.28;100.00;49262.63;5134873;27;20255;-78
2022/10/30 01:22:56;;;;;;;14.77;9.37;;;;;;;-141.28;100.00;49317.56;5134322;27;20228;-77
2022/10/30 01:25:36;;;;;;;14.37;6.97;;;;;;;-141.28;100.00;49366.63;5135648;27;20198;-77
2022/10/30 01:28:12;;;;;;;10.60;6.47;;;;;;;-141.28;100.00;49376.44;5123584;27;20444;-76
2022/10/30 01:30:58;;;;;;;12.47;6.93;;;;;;;-141.28;100.00;49345.03;5134323;27;20472;-78
2022/10/30 01:33:37;;;;;;;15.63;8.13;;;;;;;-141.28;100.00;49317.56;5134856;27;20485;-76
2022/10/30 01:36:13;;;;;;;14.33;8.33;;;;;;;-141.28;100.00;49313.66;5134462;27;20946;-77
2022/10/30 01:38:47;;;;;;;17.03;9.23;;;;;;;-141.28;100.00;49297.94;5133759;27;20500;-80
2022/10/30 01:41:15;;;;;;;12.77;8.10;;;;;;;-141.28;100.00;49254.78;5133790;27;21126;-76
2022/10/30 01:43:45;;;;;;;13.93;7.93;;;;;;;-141.28;100.00;49258.69;5133951;27;20213;-76
2022/10/30 01:46:35;;;;;;;15.20;7.30;;;;;;;-141.28;100.00;49266.56;5134159;27;20444;-77
2022/10/30 01:49:35;;;;;;;13.63;7.13;;;;;;;-141.28;100.00;49301.88;5134022;27;20450;-76
2022/10/30 01:52:13;;;;;;;13.33;7.57;;;;;;;-141.28;100.00;49282.25;5107458;27;21101;-76
2022/10/30 01:54:47;;;;;;;12.07;6.67;;;;;;;-141.28;100.00;49294.03;5133813;27;20522;-77
2022/10/30 01:57:27;;;;;;;12.17;6.60;;;;;;;-141.28;100.00;49252.81;5133846;27;20505;-80
2022/10/30 01:59:59;;;;;;;9.97;5.83;;;;;;;-141.28;100.00;49266.56;5134146;27;20955;-78
2022/10/30 02:02:28;;;;;;;9.70;5.97;;;;;;;-141.28;100.00;49235.16;5133890;27;20444;-79
2022/10/30 02:04:55;;;;;;;9.80;5.60;;;;;;;-141.28;100.00;49243.00;5133543;27;20472;-75
2022/10/30 02:07:22;;;;;;;8.83;5.60;;;;;;;-141.28;100.00;49235.16;5133707;27;20460;-76
2022/10/30 02:09:51;;;;;;;9.53;5.73;;;;;;;-141.28;100.00;49229.28;5133517;27;20444;-76
2022/10/30 02:12:20;;;;;;;11.93;5.70;;;;;;;-141.28;100.00;49219.47;5131877;27;20278;-77
2022/10/30 02:14:50;;;;;;;11.03;6.33;;;;;;;-141.28;100.00;49231.22;5133240;27;20456;-76
2022/10/30 02:17:17;;;;;;;14.53;6.87;;;;;;;-141.28;100.00;49231.22;5135927;27;20243;-75
2022/10/30 02:19:44;;;;;;;12.53;7.20;;;;;;;-141.28;100.00;49215.53;5134298;27;20440;-76
2022/10/30 02:22:13;;;;;;;12.73;7.57;;;;;;;-141.28;100.00;49217.50;5132887;27;20452;-76
2022/10/30 02:24:39;;;;;;;13.93;7.43;;;;;;;-141.28;100.00;49199.84;5133319;27;20452;-77
2022/10/30 02:27:06;;;;;;;14.67;8.63;;;;;;;-141.28;100.00;49211.59;5132970;27;20440;-78
2022/10/30 02:29:33;;;;;;;15.17;8.90;;;;;;;-141.28;100.00;49209.66;5133377;27;20497;-76
2022/10/30 02:32:00;;;;;;;16.00;9.47;;;;;;;-141.28;100.00;49203.75;5133088;27;20490;-77
2022/10/30 02:34:28;;;;;;;18.30;9.47;;;;;;;-141.28;100.00;49182.19;5133543;27;20511;-77
2022/10/30 02:36:55;;;;;;;19.60;11.60;;;;;;;-141.28;100.00;49184.13;5133191;27;20942;-78
2022/10/30 02:39:23;;;;;;;24.33;12.23;;;;;;;-141.28;100.00;49195.91;5133031;27;20198;-77
2022/10/30 02:41:50;;;;;;;26.17;13.17;;;;;;;-141.28;100.00;49166.47;5122778;27;20452;-75
2022/10/30 02:44:17;;;;;;;18.37;10.03;;;;;;;-141.28;100.00;49184.13;5137949;27;20198;-74
2022/10/30 02:46:44;;;;;;;23.47;11.53;;;;;;;-141.28;100.00;49188.06;5128412;27;20444;-76
2022/10/30 02:49:11;;;;;;;20.50;10.50;;;;;;;-141.28;100.00;49180.22;5138537;27;20455;-74
2022/10/30 02:51:38;;;;;;;24.33;13.17;;;;;;;-141.28;100.00;49178.25;5133809;27;20483;-76
2022/10/30 02:54:05;;;;;;;22.13;12.87;;;;;;;-141.28;100.00;49176.28;5132723;27;20443;-76
2022/10/30 02:56:33;;;;;;;19.33;10.80;;;;;;;-141.28;100.00;49184.13;5133033;27;20504;-77
2022/10/30 02:59:00;;;;;;;23.60;12.00;;;;;;;-141.28;100.00;49180.22;5131998;27;20614;-78
2022/10/30 03:01:27;;;;;;;28.60;12.30;;;;;;;-141.28;100.00;49164.53;5133088;27;20448;-79
2022/10/30 03:03:54;;;;;;;30.33;12.13;;;;;;;-141.28;100.00;49168.44;5132475;27;20516;-76
2022/10/30 03:06:21;;;;;;;18.30;9.67;;;;;;;-141.28;100.00;49168.44;5133283;27;20258;-76
2022/10/30 03:08:48;;;;;;;18.13;10.87;;;;;;;-141.28;100.00;49156.66;5132121;27;20859;-76
2022/10/30 03:11:17;;;;;;;19.67;10.90;;;;;;;-141.28;100.00;49168.44;5132201;27;20665;-79
2022/10/30 03:13:46;;;;;;;16.27;9.33;;;;;;;-141.28;100.00;49152.75;5132297;28;20471;-76
2022/10/30 03:16:16;;;;;;;21.00;9.97;;;;;;;-141.28;100.00;49182.19;5132663;28;20202;-78
2022/10/30 03:18:43;;;;;;;16.23;8.73;;;;;;;-141.28;100.00;49188.06;5118896;28;20209;-78
2022/10/30 03:21:11;;;;;;;21.93;9.20;;;;;;;-141.28;100.00;49156.66;5132472;28;20681;-75
2022/10/30 03:23:39;;;;;;;29.70;9.27;;;;;;;-141.28;100.00;49144.91;5136734;27;21360;-75
2022/10/30 03:26:07;;;;;;;19.47;8.50;;;;;;;-141.28;100.00;49172.38;5137925;27;20501;-76
2022/10/30 03:28:34;;;;;;;28.57;9.60;;;;;;;-141.28;100.00;49201.81;5136494;27;20454;-76
2022/10/30 03:31:04;;;;;;;28.87;9.40;;;;;;;-141.28;100.00;49170.41;5136764;27;20198;-78
2022/10/30 03:33:31;;;;;;;26.53;10.30;;;;;;;-141.28;100.00;49164.53;5135880;27;21085;-77
2022/10/30 03:35:59;;;;;;;29.17;9.17;;;;;;;-141.28;100.00;49160.59;5140969;27;20891;-76
2022/10/30 03:38:26;;;;;;;20.90;8.10;;;;;;;-141.28;100.00;49180.22;5136157;27;20193;-78
2022/10/30 03:40:54;;;;;;;18.83;8.40;;;;;;;-141.28;100.00;49203.75;5136895;27;20451;-76
2022/10/30 03:43:21;;;;;;;23.77;8.50;;;;;;;-141.28;100.00;49176.28;5136336;27;20198;-75
2022/10/30 03:45:48;;;;;;;22.57;8.33;;;;;;;-141.28;100.00;49182.19;5136582;27;20198;-74
2022/10/30 03:48:17;;;;;;;20.63;8.30;;;;;;;-141.28;100.00;49184.13;5136149;27;20439;-75
2022/10/30 03:50:45;;;;;;;20.20;9.20;;;;;;;-141.28;100.00;49176.28;5136631;27;20444;-79
2022/10/30 03:53:12;;;;;;;26.80;9.77;;;;;;;-141.28;100.00;49197.88;5135949;27;20228;-79
2022/10/30 03:55:40;;;;;;;24.50;8.90;;;;;;;-141.28;100.00;49170.41;5136112;27;20266;-76
2022/10/30 03:58:07;;;;;;;18.93;9.47;;;;;;;-141.28;100.00;49186.09;5136090;27;20199;-78
2022/10/30 04:00:36;;;;;;;17.80;9.17;;;;;;;-141.28;100.00;49209.66;5135972;27;20452;-78
2022/10/30 04:03:07;;;;;;;17.27;9.17;;;;;;;-141.28;100.00;49207.69;5135299;27;20472;-75
2022/10/30 04:05:36;;;;;;;18.50;9.27;;;;;;;-141.28;100.00;49203.75;5139210;27;20505;-76
2022/10/30 04:08:06;;;;;;;14.27;7.50;;;;;;;-141.28;100.00;49192.00;5139125;27;20240;-80
2022/10/30 04:10:33;;;;;;;12.30;7.43;;;;;;;-141.28;100.00;49219.47;5136019;27;20247;-75
2022/10/30 04:13:02;;;;;;;15.90;8.40;;;;;;;-141.28;100.00;49205.72;5135408;27;20487;-76
2022/10/30 04:15:29;;;;;;;15.83;8.60;;;;;;;-141.28;100.00;49217.50;5135827;27;20452;-78
2022/10/30 04:17:56;;;;;;;19.37;8.13;;;;;;;-141.28;100.00;49219.47;5135650;27;20964;-74
2022/10/30 04:20:24;;;;;;;15.97;8.73;;;;;;;-141.28;100.00;49227.31;5135398;27;20937;-76
2022/10/30 04:22:58;;;;;;;21.07;9.13;;;;;;;-141.28;100.00;49243.00;5135108;27;20516;-76
2022/10/30 04:25:25;;;;;;;23.87;8.93;;;;;;;-141.28;100.00;49239.09;5135416;27;20440;-76
2022/10/30 04:27:52;;;;;;;19.13;8.27;;;;;;;-141.28;100.00;49229.28;5135547;27;20447;-75
2022/10/30 04:30:21;;;;;;;18.73;9.97;;;;;;;-141.28;100.00;49246.94;5135731;27;20523;-79
2022/10/30 04:32:48;;;;;;;27.40;13.43;;;;;;;-141.28;100.00;49250.84;5122837;27;20574;-76
2022/10/30 04:35:16;;;;;;;26.07;13.03;;;;;;;-141.28;100.00;49243.00;5133709;27;20862;-77
2022/10/30 04:37:43;;;;;;;24.73;13.03;;;;;;;-141.28;100.00;49246.94;5135134;27;20452;-78
2022/10/30 04:40:12;;;;;;;23.50;12.40;;;;;;;-141.28;100.00;49223.38;5135219;27;20440;-79
2022/10/30 04:42:39;;;;;;;26.33;11.43;;;;;;;-141.28;100.00;49219.47;5134848;27;20531;-75
2022/10/30 04:45:07;;;;;;;24.60;9.80;;;;;;;-141.28;100.00;49239.09;5122389;27;20451;-75
2022/10/30 04:47:34;;;;;;;21.43;11.77;;;;;;;-141.28;100.00;49250.84;5134450;27;21027;-78
2022/10/30 04:50:01;;;;;;;19.47;11.00;;;;;;;-141.28;100.00;49215.53;5135069;27;20520;-75
2022/10/30 04:52:28;;;;;;;26.33;11.33;;;;;;;-141.28;100.00;49246.94;5135544;27;20483;-76
2022/10/30 04:54:55;;;;;;;25.87;12.67;;;;;;;-141.28;100.00;49266.56;5135764;27;20451;-75
2022/10/30 04:57:24;;;;;;;37.40;18.70;;;;;;;-141.28;100.00;49282.25;5134831;27;20504;-77
2022/10/30 04:59:50;;;;;;;36.67;20.03;;;;;;;-141.28;100.00;49309.72;5134591;27;20958;-78
2022/10/30 05:02:19;;;;;;;33.93;16.73;;;;;;;-141.28;100.00;49337.19;5134856;27;20452;-80
2022/10/30 05:04:46;;;;;;;25.90;11.27;;;;;;;-141.28;100.00;49368.59;5134834;27;20918;-76
2022/10/30 05:07:13;;;;;;;25.17;12.40;;;;;;;-141.28;100.00;49392.13;5134727;27;21044;-77
2022/10/30 05:09:40;;;;;;;26.83;10.90;;;;;;;-141.28;100.00;49427.44;5134716;27;20447;-76
2022/10/30 05:12:07;;;;;;;17.17;10.50;;;;;;;-141.28;100.00;49474.53;5134592;27;20478;-81
2022/10/30 05:14:36;;;;;;;19.00;10.50;;;;;;;-141.28;100.00;49472.59;5134372;27;20903;-76
2022/10/30 05:17:03;;;;;;;24.10;12.33;;;;;;;-141.28;100.00;49494.16;5134195;27;20444;-78
2022/10/30 05:19:30;;;;;;;18.90;11.73;;;;;;;-141.28;100.00;49560.88;5134506;27;20448;-75
2022/10/30 05:21:57;;;;;;;20.87;11.10;;;;;;;-141.28;100.00;49627.59;5133995;27;20444;-75
2022/10/30 05:24:24;;;;;;;20.13;10.53;;;;;;;-141.28;100.00;49729.66;5134485;27;20444;-81
2022/10/30 05:26:51;;;;;;;12.00;7.63;;;;;;;-141.28;100.00;49867.03;5133802;27;20447;-76
2022/10/30 05:29:18;;;;;;;12.23;6.50;;;;;;;-141.28;100.00;49984.78;5134594;27;20508;-78
2022/10/30 05:31:47;;;;;;;14.40;6.87;;;;;;;-141.28;100.00;50100.56;5133991;27;20444;-76
2022/10/30 05:34:13;;;;;;;12.07;6.50;;;;;;;-141.28;100.00;50224.22;5133903;27;20479;-76
2022/10/30 05:36:40;;;;;;;15.00;7.07;;;;;;;-141.28;100.00;50196.75;5133651;27;20440;-78
2022/10/30 05:39:07;;;;;;;19.93;7.83;;;;;;;-141.28;100.00;50208.53;5134042;27;21026;-76
2022/10/30 05:41:34;;;;;;;19.80;7.70;;;;;;;-141.28;100.00;50184.97;5133826;27;20448;-76
2022/10/30 05:44:01;;;;;;;17.90;7.70;;;;;;;-141.28;100.00;49980.84;5134402;27;20885;-78
2022/10/30 05:46:28;;;;;;;19.57;6.70;;;;;;;-141.28;100.00;49929.81;5133890;27;20263;-80
2022/10/30 05:48:56;;;;;;;14.67;7.20;;;;;;;-141.28;100.00;50506.88;5134068;27;20267;-77
2022/10/30 05:51:23;;;;;;;16.87;7.30;;;;;;;-141.28;100.00;50540.22;5133501;27;20285;-80
2022/10/30 05:53:51;;;;;;;12.10;7.13;;;;;;;-141.28;100.00;50369.47;5133817;27;20234;-79
2022/10/30 05:56:18;;;;;;;17.13;7.97;;;;;;;-141.28;100.00;50141.78;5133661;27;20198;-75
2022/10/30 05:58:45;;;;;;;25.90;12.50;;;;;;;-141.28;100.00;50039.72;5133734;27;20255;-80
2022/10/30 06:01:12;;;;;;;14.43;7.43;;;;;;;-141.28;100.00;49882.72;5133280;27;20210;-77
2022/10/30 06:03:38;;;;;;;14.83;6.97;;;;;;;-141.28;100.00;49757.13;5133991;27;20214;-75
2022/10/30 06:06:07;;;;;;;33.57;9.37;;;;;;;-141.28;100.00;49729.66;5133049;27;20586;-78
2022/10/30 06:08:34;;;;;;;17.10;7.33;;;;;;;-141.28;100.00;49749.28;5133648;27;20266;-76
2022/10/30 06:11:01;;;;;;;16.70;7.20;;;;;;;-141.28;100.00;49941.59;5135343;27;20202;-76
2022/10/30 06:13:28;;;;;;;14.57;7.27;;;;;;;-141.28;100.00;50200.66;5133140;27;20242;-76
2022/10/30 06:15:55;;;;;;;12.27;7.60;;;;;;;-141.28;100.00;50228.16;5134251;27;20194;-78
2022/10/30 06:18:22;;;;;;;10.10;6.50;;;;;;;-141.28;100.00;50275.25;5119631;27;20233;-77
2022/10/30 06:20:50;;;;;;;14.30;8.10;;;;;;;-141.28;100.00;50326.28;5133892;27;20757;-81
2022/10/30 06:23:19;;;;;;;13.83;8.53;;;;;;;-141.28;100.00;50410.69;5135199;27;20756;-76
2022/10/30 06:25:46;;;;;;;13.30;7.70;;;;;;;-141.28;100.00;50385.16;5137587;27;20198;-77
2022/10/30 06:28:13;;;;;;;14.27;7.27;;;;;;;-141.28;100.00;50447.97;5136233;27;20632;-75
2022/10/30 06:30:41;;;;;;;13.17;8.07;;;;;;;-141.28;100.00;50396.94;5136848;27;20257;-77
2022/10/30 06:33:07;;;;;;;14.50;8.80;;;;;;;-141.28;100.00;50550.06;5135165;27;20811;-78
2022/10/30 06:35:34;;;;;;;15.00;9.47;;;;;;;-141.28;100.00;50526.50;5133960;27;20247;-77
2022/10/30 06:38:01;;;;;;;12.93;8.37;;;;;;;-141.28;100.00;50540.22;5133382;27;20202;-76
2022/10/30 06:40:29;;;;;;;12.33;8.33;;;;;;;-141.28;100.00;50483.31;5134616;27;20202;-76
2022/10/30 06:42:57;;;;;;;15.37;7.80;;;;;;;-141.28;100.00;50544.16;5133780;27;20198;-79
2022/10/30 06:45:24;;;;;;;13.63;7.93;;;;;;;-141.28;100.00;50465.66;5132737;27;20198;-77
2022/10/30 06:47:52;;;;;;;11.80;7.70;;;;;;;-141.28;100.00;50436.19;5133024;27;20198;-76
2022/10/30 06:50:20;;;;;;;13.87;7.57;;;;;;;-141.28;100.00;50394.97;5132759;27;20346;-76
2022/10/30 06:52:48;;;;;;;12.53;7.80;;;;;;;-141.28;100.00;50389.09;5132503;27;20278;-78
2022/10/30 06:55:15;;;;;;;20.23;9.40;;;;;;;-141.28;100.00;50361.63;5132441;27;20297;-77
2022/10/30 06:57:44;;;;;;;15.90;8.33;;;;;;;-141.28;100.00;50367.50;5132351;27;20262;-77
2022/10/30 07:00:12;;;;;;;28.40;9.20;;;;;;;-141.28;100.00;50259.56;5131832;27;20243;-76
2022/10/30 07:02:39;;;;;;;20.87;8.30;;;;;;;-141.28;100.00;50153.56;5132842;27;20297;-79
2022/10/30 07:05:06;;;;;;;22.93;8.40;;;;;;;-141.28;100.00;50332.19;5131194;27;20223;-80
2022/10/30 07:07:33;;;;;;;16.77;7.93;;;;;;;-141.28;100.00;50251.69;5120879;28;20258;-79
2022/10/30 07:10:00;;;;;;;19.23;8.57;;;;;;;-141.28;100.00;50224.22;5132288;27;20202;-78
2022/10/30 07:12:27;;;;;;;20.57;8.17;;;;;;;-141.28;100.00;50149.63;5131995;27;20194;-77
2022/10/30 07:14:55;;;;;;;21.23;8.60;;;;;;;-141.28;100.00;50051.50;5132773;28;20233;-78
2022/10/30 07:17:22;;;;;;;18.73;8.80;;;;;;;-141.28;100.00;50043.66;5132145;28;20555;-76
2022/10/30 07:19:49;;;;;;;14.43;8.60;;;;;;;-141.28;100.00;49976.94;5132265;28;20713;-75
2022/10/30 07:22:17;;;;;;;15.00;8.80;;;;;;;-141.28;100.00;49959.25;5128396;28;20281;-76
2022/10/30 07:24:44;;;;;;;14.43;8.73;;;;;;;-141.28;100.00;50086.84;5134013;28;20206;-75
2022/10/30 07:27:11;;;;;;;20.13;9.90;;;;;;;-141.28;100.00;50139.81;5134627;28;20201;-75
2022/10/30 07:29:38;;;;;;;13.07;9.30;;;;;;;-141.28;100.00;50232.06;5134952;28;20637;-77
2022/10/30 07:32:07;;;;;;;14.20;9.53;;;;;;;-141.28;100.00;50039.72;5134514;28;20202;-77
2022/10/30 07:34:34;;;;;;;20.13;9.50;;;;;;;-141.28;100.00;50045.63;5132509;28;20712;-77
2022/10/30 07:37:01;;;;;;;24.60;10.40;;;;;;;-141.28;100.00;49914.13;5132709;28;20236;-80
2022/10/30 07:39:28;;;;;;;18.73;9.97;;;;;;;-141.28;100.00;50059.34;5131901;28;20748;-78
2022/10/30 07:41:54;;;;;;;17.50;9.40;;;;;;;-141.28;100.00;50088.78;5132334;28;20213;-79
2022/10/30 07:44:21;;;;;;;18.77;9.17;;;;;;;-141.28;100.00;50141.78;5132431;28;20198;-76
2022/10/30 07:46:48;;;;;;;17.37;9.70;;;;;;;-141.28;100.00;50204.59;5132699;28;20263;-77
2022/10/30 07:49:16;;;;;;;16.60;8.87;;;;;;;-141.28;100.00;50177.13;5132326;28;20201;-78
2022/10/30 07:51:43;;;;;;;21.00;9.50;;;;;;;-141.28;100.00;50181.03;5131880;28;20565;-78
2022/10/30 07:54:10;;;;;;;18.77;8.77;;;;;;;-141.28;100.00;50204.59;5131932;28;20696;-79
2022/10/30 07:56:37;;;;;;;14.57;8.87;;;;;;;-141.28;100.00;50126.09;5132030;28;20648;-76
2022/10/30 07:59:05;;;;;;;21.70;9.47;;;;;;;-141.28;100.00;50018.16;5132339;28;20202;-75
2022/10/30 08:01:31;;;;;;;14.30;8.30;;;;;;;-141.28;100.00;49869.00;5131603;28;20234;-76
2022/10/30 08:03:58;;;;;;;19.20;9.60;;;;;;;-141.28;100.00;49682.56;5131684;27;20202;-78
2022/10/30 08:06:26;;;;;;;15.83;9.23;;;;;;;-141.28;100.00;49556.97;5132106;28;20202;-75
2022/10/30 08:08:54;;;;;;;18.33;10.27;;;;;;;-141.28;100.00;49513.78;5131672;28;20206;-81
2022/10/30 08:11:21;;;;;;;22.13;10.07;;;;;;;-141.28;100.00;49517.72;5133691;27;20202;-76
2022/10/30 08:13:48;;;;;;;18.93;9.80;;;;;;;-141.28;100.00;49513.78;5135059;27;20230;-76
2022/10/30 08:16:17;;;;;;;16.23;10.13;;;;;;;-141.28;100.00;49564.81;5136787;27;20202;-76
2022/10/30 08:18:44;;;;;;;18.60;8.90;;;;;;;-141.28;100.00;49492.22;5135825;27;20202;-79
2022/10/30 08:21:11;;;;;;;16.57;9.33;;;;;;;-141.28;100.00;49343.06;5135706;27;20209;-78
2022/10/30 08:23:40;;;;;;;13.63;8.97;;;;;;;-141.28;100.00;49607.97;5136688;27;20270;-80
2022/10/30 08:26:07;;;;;;;15.37;9.00;;;;;;;-141.28;100.00;49733.56;5135660;27;20206;-77
2022/10/30 08:28:33;;;;;;;27.93;9.17;;;;;;;-141.28;100.00;49592.28;5135506;27;20202;-77
2022/10/30 08:31:02;;;;;;;16.53;9.47;;;;;;;-141.28;100.00;49454.94;5135074;27;20677;-77
2022/10/30 08:33:29;;;;;;;14.97;9.83;;;;;;;-141.28;100.00;49272.44;5135238;27;20229;-79
2022/10/30 08:35:58;;;;;;;15.23;9.27;;;;;;;-141.28;100.00;49431.38;5134195;27;20199;-78
2022/10/30 08:38:26;;;;;;;15.20;8.53;;;;;;;-141.28;100.00;49411.75;5135333;27;20652;-79
2022/10/30 08:40:55;;;;;;;13.90;9.07;;;;;;;-141.28;100.00;49427.44;5135876;27;20714;-81
2022/10/30 08:43:24;;;;;;;21.63;10.23;;;;;;;-141.28;100.00;49447.06;5135812;27;20203;-78
2022/10/30 08:45:50;;;;;;;14.90;9.20;;;;;;;-141.28;100.00;49431.38;5137320;27;20199;-75
2022/10/30 08:48:18;;;;;;;19.97;10.17;;;;;;;-141.28;100.00;49297.94;5135507;27;20254;-77
2022/10/30 08:50:45;;;;;;;23.20;10.10;;;;;;;-141.28;100.00;49458.84;5135036;27;20684;-79
2022/10/30 08:53:14;;;;;;;23.07;11.20;;;;;;;-141.28;100.00;49439.22;5135476;27;20212;-76
2022/10/30 08:55:42;;;;;;;17.47;9.87;;;;;;;-141.28;100.00;49517.72;5134930;27;20190;-80
2022/10/30 08:58:11;;;;;;;18.87;9.87;;;;;;;-141.28;100.00;49631.53;5134985;27;20202;-78
2022/10/30 09:00:38;;;;;;;15.90;10.03;;;;;;;-141.28;100.00;49651.16;5134787;27;20198;-81
2022/10/30 09:03:05;;;;;;;23.30;9.80;;;;;;;-141.28;100.00;49627.59;5134744;27;20285;-76
2022/10/30 09:05:32;;;;;;;16.17;10.30;;;;;;;-141.28;100.00;49564.81;5134521;27;20301;-76
2022/10/30 09:08:00;;;;;;;19.13;9.37;;;;;;;-141.28;100.00;49643.31;5134966;27;20212;-78
2022/10/30 09:10:27;;;;;;;15.23;9.60;;;;;;;-141.28;100.00;49586.41;5134355;27;20206;-77
2022/10/30 09:12:56;;;;;;;18.37;9.73;;;;;;;-141.28;100.00;49525.56;5134293;27;20237;-76
2022/10/30 09:15:25;;;;;;;15.00;9.03;;;;;;;-141.28;100.00;49486.31;5133999;27;20287;-75
2022/10/30 09:17:57;;;;;;;14.73;8.63;;;;;;;-141.28;100.00;49415.69;5116196;27;20209;-77
2022/10/30 09:20:25;;;;;;;15.83;9.73;;;;;;;-141.28;100.00;49478.47;5134471;27;20206;-79
2022/10/30 09:22:51;;;;;;;14.63;8.63;;;;;;;-141.28;100.00;49435.31;5134365;27;20202;-77
2022/10/30 09:25:19;;;;;;;15.80;9.13;;;;;;;-141.28;100.00;49364.66;5134094;27;20198;-76
2022/10/30 09:27:47;;;;;;;18.57;9.67;;;;;;;-141.28;100.00;49294.03;5123345;27;20199;-80
2022/10/30 09:30:15;;;;;;;18.47;9.67;;;;;;;-141.28;100.00;49227.31;5133200;27;20200;-79
2022/10/30 09:32:43;;;;;;;18.03;9.90;;;;;;;-141.28;100.00;49295.97;5134792;27;20202;-78
2022/10/30 09:35:11;;;;;;;16.03;10.17;;;;;;;-141.28;100.00;49262.63;5133813;27;20226;-77
2022/10/30 09:37:39;;;;;;;14.87;10.17;;;;;;;-141.28;100.00;49233.19;5134488;27;20198;-78
2022/10/30 09:40:08;;;;;;;13.63;9.77;;;;;;;-141.28;100.00;49706.09;5133639;27;20212;-79
2022/10/30 09:42:42;;;;;;;13.37;9.50;;;;;;;-141.28;100.00;49168.44;5133381;27;20209;-80
2022/10/30 09:45:26;;;;;;;14.27;9.50;;;;;;;-141.28;100.00;49188.06;5121722;27;20198;-76
2022/10/30 09:48:11;;;;;;;17.87;10.70;;;;;;;-141.28;100.00;49184.13;5134395;27;20224;-78
2022/10/30 09:50:46;;;;;;;18.10;10.63;;;;;;;-141.28;100.00;49217.50;5133676;27;20237;-80
2022/10/30 09:53:21;;;;;;;17.77;11.37;;;;;;;-141.28;100.00;49184.13;5133927;27;20194;-76
2022/10/30 09:55:56;;;;;;;20.93;10.63;;;;;;;-141.28;100.00;49180.22;5135136;27;20217;-77
2022/10/30 09:58:30;;;;;;;18.20;10.63;;;;;;;-141.28;100.00;49160.59;5135845;27;20205;-78
2022/10/30 10:01:17;;;;;;;20.17;10.90;;;;;;;-141.28;100.00;49156.66;5133657;27;20197;-80
2022/10/30 10:04:01;;;;;;;20.57;11.13;;;;;;;-141.28;100.00;49117.44;5136064;27;20562;-78
2022/10/30 10:06:29;;;;;;;20.23;11.93;;;;;;;-141.28;100.00;49093.88;5133675;27;20216;-76
2022/10/30 10:09:01;;;;;;;27.13;14.77;;;;;;;-141.28;100.00;49109.59;5133150;27;20289;-77
2022/10/30 10:11:32;;;;;;;14.87;10.37;;;;;;;-141.28;98.74;49074.25;5133497;27;20236;-76
2022/10/30 10:14:03;;;;;;;23.00;12.43;;;;;;;-141.28;100.00;48944.78;5132598;27;20794;-76
2022/10/30 10:16:35;;;;;;;14.50;11.00;;;;;;;-141.28;99.29;49076.22;5133251;27;20710;-77
2022/10/30 10:19:14;;;;;;;18.30;11.60;;;;;;;-141.28;98.63;49089.97;5133010;27;20194;-78
2022/10/30 10:21:46;;;;;;;18.73;11.67;;;;;;;-141.28;94.09;49066.41;5133891;27;20294;-79
2022/10/30 10:24:19;;;;;;;17.20;11.30;;;;;;;-141.28;91.23;49046.78;5133257;27;20698;-79
2022/10/30 10:26:49;;;;;;;21.87;14.50;;;;;;;-141.28;86.30;49060.53;5132895;27;20207;-77
2022/10/30 10:29:41;;;;;;;20.23;11.57;;;;;;;-141.28;86.40;49044.84;5132599;27;20207;-76
2022/10/30 10:32:24;;;;;;;15.80;11.03;;;;;;;-141.28;83.75;49036.97;5133378;27;20727;-79
2022/10/30 10:35:05;;;;;;;13.50;10.67;;;;;;;-141.28;83.49;49046.78;5120754;27;20238;-76
2022/10/30 10:37:38;;;;;;;17.07;10.30;;;;;;;-141.28;84.17;49072.31;5133228;27;20665;-77
2022/10/30 10:40:38;;;;;;;16.63;10.67;;;;;;;-141.28;81.40;49052.69;5132487;27;20210;-77
2022/10/30 10:43:18;;;;;;;13.80;9.57;;;;;;;-141.28;78.34;49001.66;5122070;27;20560;-77
2022/10/30 10:45:54;;;;;;;21.87;9.20;;;;;;;-141.28;74.25;48995.78;5133452;27;20251;-77
2022/10/30 10:48:40;;;;;;;13.57;9.50;;;;;;;-141.28;70.86;48991.84;5133503;27;20641;-77
2022/10/30 10:51:14;;;;;;;15.77;9.00;;;;;;;-141.28;69.00;48964.38;5133606;27;20272;-78
2022/10/30 10:53:44;;;;;;;12.40;8.77;;;;;;;-141.28;70.94;49025.22;5133754;27;20267;-77
2022/10/30 10:56:13;;;;;;;11.07;7.40;;;;;;;-141.28;74.30;49031.09;5139464;27;20198;-76
2022/10/30 10:58:48;;;;;;;12.27;7.50;;;;;;;-141.28;70.36;48987.94;5143139;27;20673;-77
2022/10/30 11:01:20;;;;;;;11.33;7.60;;;;;;;-141.28;70.27;49007.56;5140096;27;20258;-76
2022/10/30 11:03:56;;;;;;;11.33;7.53;;;;;;;-141.28;70.68;48878.06;5139796;27;20741;-76
2022/10/30 11:06:29;;;;;;;18.53;6.97;;;;;;;-141.28;69.91;48956.53;5133906;27;20217;-77
2022/10/30 11:09:02;;;;;;;12.70;7.50;;;;;;;-141.28;65.08;48944.78;5133491;27;20206;-75
2022/10/30 11:11:29;;;;;;;14.10;7.27;;;;;;;-141.28;63.79;48895.72;5132571;27;20233;-79